Etusivu
METAR-TAF:

METAR-TAF

Lentoasemat :

Morris Municipal Airport (James R. Washburn Field)

Morris, Illinois, Yhdysvallat

Leveyspiiri: 41-25-31N, Pituuspiiri: 088-25-07W, korkeus merenpinnasta: 178 m

Tämänhetkinen sää

Tämä raportti tehtiin 16 minuuttia sitten, kello 06.55 UTC
Tuuli 6 kn etelästä
Lämpötila -12°C
Kosteus 72%
Ilmanpaine 1028 hPa
Näkyvyys: 16.1 km
selkeää

METAR: KC09 130655Z AUTO 17006KT 10SM CLR M12/M16 A3036 RMK AO2 T11221157

Aika: 01:11 (07:11 UTC)


TAF: puuttuu

Säähavainnot ja -ennusteet yli 4000 lentoasemalta (METAR- ja TAF-raportit).

Käytössä olevat sääasemat on merkitty karttaan keltaisilla ja punaisilla pisteillä.

Aseta hiiri pisteen päälle nähdäksesi sääaseman nimen.

Klikkaa sitten nähdäksesi säähavainnot ja -ennusteet.

Kartan vaihtaminen: klikkaa mustalla rastilla varustettuja vihreitä pisteitä, niin voit zoomata sisään; viivalla varustettua vihreää pistettä, niin voit zoomata ulos tai vihreitä nuolia, niin pääset viereisille kartoille.


METAR-TAF: